Time;durP1;ratioP1;P1;durP2;ratioP2;P2;SDS_P1;SDS_P2;PMS_P1;PMS_P2;Temp;Humidity;BMP_temperature;BMP_pressure;BME280_temperature;BME280_humidity;BME280_pressure;Samples;Min_cycle;Max_cycle;Signal;HPM_P1;HPM_P2
2021/12/29 00:02:20;;;;;;;32.15;18.45;;;1.80;99.90;;;;;;5027246;28;20213;-56
2021/12/29 00:04:46;;;;;;;32.83;17.67;;;1.80;99.90;;;;;;5027759;28;20029;-58
2021/12/29 00:07:12;;;;;;;37.97;21.25;;;1.80;99.90;;;;;;5027187;28;20048;-62
2021/12/29 00:09:40;;;;;;;31.85;20.27;;;1.80;99.90;;;;;;5027263;28;20071;-58
2021/12/29 00:12:07;;;;;;;32.53;19.25;;;1.80;99.90;;;;;;5028091;28;20353;-57
2021/12/29 00:14:34;;;;;;;30.60;17.45;;;1.80;99.90;;;;;;5009884;28;20103;-57
2021/12/29 00:17:01;;;;;;;36.65;20.13;;;1.80;99.90;;;;;;5010335;28;20430;-56
2021/12/29 00:19:26;;;;;;;35.95;20.35;;;1.80;99.90;;;;;;5033034;28;20029;-55
2021/12/29 00:21:52;;;;;;;38.08;21.15;;;1.80;99.90;;;;;;5037845;28;20436;-57
2021/12/29 00:24:17;;;;;;;41.67;20.67;;;1.70;99.90;;;;;;5038138;28;20107;-56
2021/12/29 00:26:43;;;;;;;36.17;19.80;;;1.70;99.90;;;;;;5014974;28;20025;-56
2021/12/29 00:29:09;;;;;;;33.92;20.00;;;1.70;99.90;;;;;;5008870;28;20033;-56
2021/12/29 00:31:37;;;;;;;46.72;22.85;;;1.70;99.90;;;;;;5027539;28;20052;-58
2021/12/29 00:34:03;;;;;;;43.35;21.95;;;1.60;99.90;;;;;;5032576;28;20026;-57
2021/12/29 00:36:28;;;;;;;46.42;24.88;;;1.60;99.90;;;;;;5043984;28;20029;-57
2021/12/29 00:38:56;;;;;;;46.33;23.45;;;1.70;99.90;;;;;;5044631;28;20485;-58
2021/12/29 00:41:23;;;;;;;42.97;22.85;;;1.60;99.90;;;;;;5043434;28;20565;-57
2021/12/29 00:43:49;;;;;;;42.80;23.02;;;1.60;99.90;;;;;;5043604;28;20021;-57
2021/12/29 00:46:17;;;;;;;49.40;23.98;;;1.60;99.90;;;;;;5043517;28;20063;-58
2021/12/29 00:48:45;;;;;;;40.33;22.83;;;1.60;99.90;;;;;;5046965;28;20074;-58
2021/12/29 00:51:12;;;;;;;47.17;23.65;;;1.60;99.90;;;;;;5044624;28;20503;-58
2021/12/29 00:53:41;;;;;;;52.72;24.98;;;1.60;99.90;;;;;;5046472;28;20033;-57
2021/12/29 00:56:07;;;;;;;52.50;25.52;;;1.60;99.90;;;;;;5047316;28;20087;-58
2021/12/29 00:58:33;;;;;;;50.00;25.67;;;1.60;99.90;;;;;;5046462;28;20033;-57
2021/12/29 01:01:00;;;;;;;47.53;23.33;;;1.50;99.90;;;;;;5047844;28;20025;-58
2021/12/29 01:03:26;;;;;;;40.58;23.38;;;1.50;99.90;;;;;;5043911;28;20034;-56
2021/12/29 01:05:52;;;;;;;49.67;26.38;;;1.60;99.90;;;;;;5035551;28;20079;-57
2021/12/29 01:08:18;;;;;;;48.67;25.83;;;1.60;99.90;;;;;;5044476;28;20049;-56
2021/12/29 01:10:44;;;;;;;56.78;26.15;;;1.60;99.90;;;;;;5045725;28;20024;-56
2021/12/29 01:13:14;;;;;;;51.75;26.92;;;1.50;99.90;;;;;;5048399;28;20383;-57
2021/12/29 01:16:36;;;;;;;52.38;26.05;;;1.50;99.90;;;;;;5049345;28;20017;-55
2021/12/29 01:18:38;;;;;;;59.53;27.27;;;1.50;99.90;;;;;;5042531;28;20085;-57
2021/12/29 01:21:07;;;;;;;51.90;27.13;;;1.50;99.90;;;;;;5045726;28;20045;-55
2021/12/29 01:23:42;;;;;;;47.33;25.23;;;1.50;99.90;;;;;;5048591;28;20071;-57
2021/12/29 01:26:07;;;;;;;54.30;28.02;;;1.40;99.90;;;;;;5039388;28;20040;-56
2021/12/29 01:28:33;;;;;;;54.63;27.58;;;1.40;99.90;;;;;;5040000;28;20029;-52
2021/12/29 01:30:59;;;;;;;61.03;27.63;;;1.40;99.90;;;;;;5039676;28;20021;-57
2021/12/29 01:33:25;;;;;;;52.00;27.17;;;1.40;99.90;;;;;;5031166;28;20116;-57
2021/12/29 01:35:50;;;;;;;48.92;25.13;;;1.40;99.90;;;;;;5016316;28;20037;-58
2021/12/29 01:38:16;;;;;;;51.33;25.88;;;1.30;99.90;;;;;;5045915;28;20107;-55
2021/12/29 01:40:43;;;;;;;55.83;27.33;;;1.40;99.90;;;;;;5018214;28;20021;-57
2021/12/29 01:43:09;;;;;;;63.00;26.95;;;1.30;99.90;;;;;;5015377;28;20388;-56
2021/12/29 01:45:36;;;;;;;56.28;27.45;;;1.30;99.90;;;;;;5047441;28;20025;-57
2021/12/29 01:48:03;;;;;;;59.83;28.00;;;1.30;99.90;;;;;;5046476;28;20037;-57
2021/12/29 01:50:31;;;;;;;47.70;25.50;;;1.30;99.90;;;;;;5044155;28;20068;-55
2021/12/29 01:53:02;;;;;;;46.53;26.48;;;1.30;99.90;;;;;;5047398;28;20041;-56
2021/12/29 01:55:30;;;;;;;46.17;25.50;;;1.30;99.90;;;;;;5020892;28;20462;-56
2021/12/29 01:57:57;;;;;;;56.33;27.08;;;1.30;99.90;;;;;;5028189;28;20420;-57
2021/12/29 02:00:25;;;;;;;48.25;26.13;;;1.30;99.90;;;;;;5028424;28;20184;-57
2021/12/29 02:02:51;;;;;;;57.20;26.98;;;1.30;99.90;;;;;;5027092;28;21995;-57
2021/12/29 02:05:17;;;;;;;51.20;26.70;;;1.30;99.90;;;;;;5011871;28;20034;-56
2021/12/29 02:07:42;;;;;;;53.33;26.55;;;1.30;99.90;;;;;;5029868;28;20032;-57
2021/12/29 02:10:11;;;;;;;52.25;27.58;;;1.30;99.90;;;;;;5030011;28;20053;-56
2021/12/29 02:12:37;;;;;;;46.05;25.80;;;1.30;99.90;;;;;;5029654;28;20021;-55
2021/12/29 02:15:05;;;;;;;51.92;26.50;;;1.30;99.90;;;;;;5029963;28;20075;-57
2021/12/29 02:17:31;;;;;;;58.65;28.85;;;1.30;99.90;;;;;;5029104;28;20030;-57
2021/12/29 02:20:05;;;;;;;47.92;25.25;;;1.30;99.90;;;;;;5029930;28;20079;-57
2021/12/29 02:25:18;;;;;;;45.53;25.65;;;1.30;99.90;;;;;;5041878;28;20558;-48
2021/12/29 02:27:48;;;;;;;44.55;23.70;;;1.30;99.90;;;;;;5043022;28;20037;-49
2021/12/29 02:30:16;;;;;;;43.30;24.58;;;1.30;99.90;;;;;;5046668;28;20029;-53
2021/12/29 02:32:43;;;;;;;53.00;26.23;;;1.30;99.90;;;;;;5048094;28;20025;-51
2021/12/29 02:35:09;;;;;;;51.05;26.35;;;1.30;99.90;;;;;;5057367;28;20029;-52
2021/12/29 02:37:37;;;;;;;55.25;28.90;;;1.30;99.90;;;;;;5056118;28;20390;-53
2021/12/29 02:40:03;;;;;;;61.90;29.00;;;1.30;99.90;;;;;;5054878;28;20029;-49
2021/12/29 02:42:37;;;;;;;47.67;25.83;;;1.30;99.90;;;;;;5051780;28;20028;-48
2021/12/29 02:45:05;;;;;;;51.83;26.58;;;1.30;99.90;;;;;;5058366;28;20549;-50
2021/12/29 02:47:31;;;;;;;55.60;25.50;;;1.30;99.90;;;;;;5058466;28;20418;-49
2021/12/29 02:49:57;;;;;;;46.85;26.73;;;1.30;99.90;;;;;;5039585;28;20032;-57
2021/12/29 02:52:24;;;;;;;57.72;27.42;;;1.30;99.90;;;;;;5057350;28;20041;-54
2021/12/29 02:54:51;;;;;;;51.38;27.70;;;1.30;99.90;;;;;;5055572;28;20506;-49
2021/12/29 02:57:17;;;;;;;46.15;25.20;;;1.30;99.90;;;;;;5058506;28;20040;-49
2021/12/29 02:59:43;;;;;;;44.17;24.52;;;1.30;99.90;;;;;;5056750;28;20099;-51
2021/12/29 03:02:08;;;;;;;56.47;26.05;;;1.20;99.90;;;;;;5055317;28;20531;-51
2021/12/29 03:04:34;;;;;;;53.35;26.42;;;1.30;99.90;;;;;;5055118;28;20056;-54
2021/12/29 03:07:00;;;;;;;58.47;26.80;;;1.20;99.90;;;;;;5058537;28;20029;-49
2021/12/29 03:09:25;;;;;;;49.33;27.33;;;1.20;99.90;;;;;;5037804;28;20029;-48
2021/12/29 03:11:51;;;;;;;56.13;28.08;;;1.20;99.90;;;;;;5053100;28;20504;-51
2021/12/29 03:14:18;;;;;;;60.97;27.88;;;1.20;99.90;;;;;;5056065;28;20094;-53
2021/12/29 03:16:43;;;;;;;51.85;25.40;;;1.20;99.90;;;;;;5057564;28;20100;-49
2021/12/29 03:19:10;;;;;;;54.92;25.35;;;1.20;99.90;;;;;;5056263;28;20111;-50
2021/12/29 03:21:36;;;;;;;49.17;26.60;;;1.20;99.90;;;;;;5055581;28;20036;-50
2021/12/29 03:24:03;;;;;;;47.20;24.45;;;1.20;99.90;;;;;;5054117;28;20036;-49
2021/12/29 03:26:29;;;;;;;42.55;24.27;;;1.30;99.90;;;;;;5056546;28;20533;-51
2021/12/29 03:28:57;;;;;;;42.25;24.85;;;1.30;99.90;;;;;;5055833;28;20025;-49
2021/12/29 03:31:23;;;;;;;41.85;23.65;;;1.30;99.90;;;;;;5054211;28;20041;-48
2021/12/29 03:33:49;;;;;;;41.30;21.98;;;1.30;99.90;;;;;;5053128;28;20020;-50
2021/12/29 03:36:16;;;;;;;37.78;21.73;;;1.30;99.90;;;;;;5055308;28;20020;-49
2021/12/29 03:38:43;;;;;;;39.42;20.45;;;1.30;99.90;;;;;;5054622;28;20483;-49
2021/12/29 03:41:13;;;;;;;43.78;21.52;;;1.30;99.90;;;;;;5055079;28;20043;-53
2021/12/29 03:43:40;;;;;;;48.72;25.98;;;1.30;99.90;;;;;;5054210;28;20047;-48
2021/12/29 03:46:06;;;;;;;51.92;23.63;;;1.30;99.90;;;;;;5056908;28;20379;-51
2021/12/29 03:48:35;;;;;;;49.95;23.02;;;1.30;99.90;;;;;;5056065;28;20045;-55
2021/12/29 03:51:01;;;;;;;38.70;22.50;;;1.30;99.90;;;;;;5055294;28;20044;-48
2021/12/29 03:53:27;;;;;;;42.75;22.73;;;1.30;99.90;;;;;;5056632;28;20115;-48
2021/12/29 03:55:53;;;;;;;50.55;23.58;;;1.30;99.90;;;;;;5055318;28;20017;-48
2021/12/29 03:58:20;;;;;;;50.63;25.90;;;1.30;99.90;;;;;;5057274;28;20083;-48
2021/12/29 04:00:48;;;;;;;59.92;27.27;;;1.30;99.90;;;;;;5054589;28;20390;-50
2021/12/29 04:03:14;;;;;;;47.15;24.13;;;1.30;99.90;;;;;;5052195;28;20060;-49
2021/12/29 04:05:40;;;;;;;45.67;22.13;;;1.30;99.90;;;;;;5055168;28;20610;-49
2021/12/29 04:08:06;;;;;;;56.05;27.90;;;1.30;99.90;;;;;;5038008;28;20041;-48
2021/12/29 04:10:32;;;;;;;58.20;26.48;;;1.30;99.90;;;;;;5055196;28;20037;-49
2021/12/29 04:12:58;;;;;;;42.67;23.08;;;1.30;99.90;;;;;;5056347;28;20029;-54
2021/12/29 04:15:29;;;;;;;47.33;23.67;;;1.30;99.90;;;;;;5055006;28;20497;-51
2021/12/29 04:17:58;;;;;;;43.20;23.63;;;1.30;99.90;;;;;;5054729;28;20039;-53
2021/12/29 04:23:12;;;;;;;52.65;26.33;;;1.30;99.90;;;;;;5053617;28;20044;-50
2021/12/29 04:25:39;;;;;;;52.42;25.75;;;1.30;99.90;;;;;;5050836;28;20116;-55
2021/12/29 04:28:14;;;;;;;46.47;23.40;;;1.30;99.90;;;;;;5055245;28;20514;-53
2021/12/29 04:30:40;;;;;;;44.20;23.83;;;1.30;99.90;;;;;;5056178;28;20024;-53
2021/12/29 04:33:07;;;;;;;50.72;25.27;;;1.30;99.90;;;;;;5055498;28;20479;-50
2021/12/29 04:35:32;;;;;;;44.72;24.27;;;1.30;99.90;;;;;;5055623;28;20426;-49
2021/12/29 04:37:58;;;;;;;44.25;23.85;;;1.30;99.90;;;;;;5053733;28;20020;-48
2021/12/29 04:40:25;;;;;;;46.83;24.70;;;1.30;99.90;;;;;;5054693;28;20111;-48
2021/12/29 04:42:51;;;;;;;49.78;24.42;;;1.40;99.90;;;;;;5055624;28;20343;-48
2021/12/29 04:45:17;;;;;;;46.97;25.73;;;1.40;99.90;;;;;;5055812;28;20036;-52
2021/12/29 04:47:45;;;;;;;48.60;25.75;;;1.40;99.90;;;;;;5054155;28;20049;-49
2021/12/29 04:53:10;;;;;;;46.17;24.55;;;1.40;99.90;;;;;;5029267;28;20032;-49
2021/12/29 04:55:36;;;;;;;46.00;25.35;;;1.40;99.90;;;;;;5052875;28;20043;-52
2021/12/29 04:58:02;;;;;;;50.40;27.08;;;1.40;99.90;;;;;;5054565;28;20379;-51
2021/12/29 05:00:30;;;;;;;49.38;26.25;;;1.40;99.90;;;;;;5055873;28;20044;-51
2021/12/29 05:02:57;;;;;;;47.38;25.80;;;1.30;99.90;;;;;;5052657;28;20027;-54
2021/12/29 05:05:39;;;;;;;47.28;24.52;;;1.40;99.90;;;;;;5055762;28;20143;-48
2021/12/29 05:08:25;;;;;;;51.50;24.48;;;1.40;99.90;;;;;;5053431;28;20033;-48
2021/12/29 05:10:52;;;;;;;51.42;25.25;;;1.40;99.90;;;;;;5055212;28;20033;-51
2021/12/29 05:13:18;;;;;;;45.40;23.45;;;1.40;99.90;;;;;;5052930;28;20043;-52
2021/12/29 05:15:44;;;;;;;41.95;23.27;;;1.40;99.90;;;;;;5055859;28;20013;-49
2021/12/29 05:18:11;;;;;;;47.83;25.75;;;1.40;99.90;;;;;;5053843;28;20023;-48
2021/12/29 05:20:37;;;;;;;51.28;27.30;;;1.40;99.90;;;;;;5053479;28;20029;-55
2021/12/29 05:23:03;;;;;;;44.83;24.23;;;1.40;99.90;;;;;;5053159;28;20479;-53
2021/12/29 05:25:29;;;;;;;47.92;25.73;;;1.40;99.90;;;;;;5055657;28;20162;-50
2021/12/29 05:27:56;;;;;;;54.58;27.85;;;1.40;99.90;;;;;;5027402;28;20112;-51
2021/12/29 05:30:22;;;;;;;53.67;26.20;;;1.40;99.90;;;;;;5052116;28;20037;-49
2021/12/29 05:32:47;;;;;;;47.92;26.02;;;1.40;99.90;;;;;;5056496;28;20135;-49
2021/12/29 05:35:14;;;;;;;49.83;26.48;;;1.40;99.90;;;;;;5058720;28;20134;-52
2021/12/29 05:37:40;;;;;;;50.58;25.30;;;1.40;99.90;;;;;;5057418;28;20167;-49
2021/12/29 05:40:07;;;;;;;60.78;27.40;;;1.40;99.90;;;;;;5058434;28;20119;-50
2021/12/29 05:42:34;;;;;;;46.42;26.05;;;1.40;99.90;;;;;;5058555;28;20052;-56
2021/12/29 05:45:02;;;;;;;42.15;24.77;;;1.40;99.90;;;;;;5056646;28;20050;-53
2021/12/29 05:47:28;;;;;;;51.97;27.42;;;1.40;99.90;;;;;;5050455;28;20394;-49
2021/12/29 05:49:54;;;;;;;42.80;24.10;;;1.40;99.90;;;;;;5058035;28;20017;-51
2021/12/29 05:52:19;;;;;;;49.92;25.52;;;1.40;99.90;;;;;;5059074;28;20032;-50
2021/12/29 05:54:45;;;;;;;41.88;23.17;;;1.40;99.90;;;;;;5059009;28;20255;-48
2021/12/29 05:57:10;;;;;;;44.47;22.58;;;1.40;99.90;;;;;;5058060;28;20025;-49
2021/12/29 05:59:36;;;;;;;52.90;24.92;;;1.40;99.90;;;;;;5058334;28;20139;-53
2021/12/29 06:02:02;;;;;;;48.97;25.83;;;1.40;99.90;;;;;;5057652;28;20094;-53
2021/12/29 06:04:28;;;;;;;49.80;24.00;;;1.40;99.90;;;;;;5057129;28;20062;-50
2021/12/29 06:06:53;;;;;;;48.63;25.48;;;1.40;99.90;;;;;;5057695;28;20506;-49
2021/12/29 06:09:19;;;;;;;47.42;24.63;;;1.40;99.90;;;;;;5056587;28;20025;-49
2021/12/29 06:11:44;;;;;;;45.13;23.63;;;1.40;99.90;;;;;;5057691;28;20417;-51
2021/12/29 06:14:10;;;;;;;42.38;23.77;;;1.40;99.90;;;;;;5038060;28;20163;-49
2021/12/29 06:16:36;;;;;;;46.58;25.35;;;1.40;99.90;;;;;;5057908;28;20108;-49
2021/12/29 06:19:02;;;;;;;41.75;22.98;;;1.40;99.90;;;;;;5058911;28;20032;-50
2021/12/29 06:21:28;;;;;;;40.08;24.10;;;1.40;99.90;;;;;;5057765;28;20357;-49
2021/12/29 06:23:53;;;;;;;56.58;25.73;;;1.40;99.90;;;;;;5056351;28;20430;-49
2021/12/29 06:26:19;;;;;;;43.97;23.33;;;1.40;99.90;;;;;;5056978;28;20074;-55
2021/12/29 06:28:46;;;;;;;46.08;24.23;;;1.40;99.90;;;;;;5058170;28;20033;-51
2021/12/29 06:31:12;;;;;;;43.22;22.95;;;1.40;99.90;;;;;;5057922;28;20036;-48
2021/12/29 06:33:38;;;;;;;44.55;24.17;;;1.40;99.90;;;;;;5050166;28;20024;-49
2021/12/29 06:36:03;;;;;;;40.60;21.75;;;1.40;99.90;;;;;;5057754;28;20035;-50
2021/12/29 06:38:29;;;;;;;43.80;24.00;;;1.40;99.90;;;;;;5056890;28;20033;-53
2021/12/29 06:40:54;;;;;;;45.63;24.67;;;1.40;99.90;;;;;;5057649;28;20307;-49
2021/12/29 06:43:20;;;;;;;43.53;24.20;;;1.40;99.90;;;;;;5054917;28;20040;-50
2021/12/29 06:45:46;;;;;;;50.30;24.48;;;1.40;99.90;;;;;;5054194;28;20445;-53
2021/12/29 06:48:11;;;;;;;51.05;25.13;;;1.40;99.90;;;;;;5057543;28;20033;-50
2021/12/29 06:50:37;;;;;;;45.92;25.50;;;1.40;99.90;;;;;;5055398;28;20021;-50
2021/12/29 06:53:03;;;;;;;46.90;25.55;;;1.40;99.90;;;;;;5057254;28;20025;-49
2021/12/29 06:55:29;;;;;;;45.30;24.13;;;1.50;99.90;;;;;;5056369;28;20037;-51
2021/12/29 06:57:54;;;;;;;44.50;24.05;;;1.40;99.90;;;;;;5056891;28;20033;-49
2021/12/29 07:00:20;;;;;;;40.25;23.65;;;1.40;99.90;;;;;;5038682;28;20071;-52
2021/12/29 07:02:46;;;;;;;46.00;24.38;;;1.40;99.90;;;;;;5059005;28;20107;-50
2021/12/29 07:05:12;;;;;;;46.05;22.92;;;1.40;99.90;;;;;;5058099;28;20535;-55
2021/12/29 07:07:38;;;;;;;39.20;22.50;;;1.50;99.90;;;;;;5056178;28;20132;-48
2021/12/29 07:10:05;;;;;;;50.28;25.25;;;1.40;99.90;;;;;;5055132;28;20029;-52
2021/12/29 07:12:31;;;;;;;52.42;25.23;;;1.50;99.90;;;;;;5056631;28;20144;-48
2021/12/29 07:14:57;;;;;;;44.88;25.10;;;1.50;99.90;;;;;;5057903;28;20487;-48
2021/12/29 07:17:22;;;;;;;43.15;23.25;;;1.50;99.90;;;;;;5057196;28;20037;-53
2021/12/29 07:19:48;;;;;;;43.25;24.27;;;1.50;99.90;;;;;;5057604;28;20435;-50
2021/12/29 07:22:14;;;;;;;44.58;23.10;;;1.40;99.90;;;;;;5056149;28;20021;-48
2021/12/29 07:24:39;;;;;;;38.13;22.02;;;1.50;99.90;;;;;;5056400;28;20036;-52
2021/12/29 07:27:05;;;;;;;46.00;22.80;;;1.40;99.90;;;;;;5053413;28;20103;-51
2021/12/29 07:29:31;;;;;;;42.53;22.70;;;1.50;99.90;;;;;;5056104;28;20036;-52
2021/12/29 07:32:02;;;;;;;43.03;22.10;;;1.50;99.90;;;;;;5054409;28;20033;-51
2021/12/29 07:34:28;;;;;;;35.25;20.60;;;1.50;99.90;;;;;;5055390;28;20035;-52
2021/12/29 07:36:54;;;;;;;38.85;21.27;;;1.40;99.90;;;;;;5056999;28;20055;-49
2021/12/29 07:39:20;;;;;;;39.67;21.77;;;1.50;99.90;;;;;;5056002;28;20067;-48
2021/12/29 07:41:46;;;;;;;42.67;21.58;;;1.40;99.90;;;;;;5057140;28;20115;-48
2021/12/29 07:44:13;;;;;;;41.33;23.08;;;1.40;99.90;;;;;;5054134;28;20442;-50
2021/12/29 07:46:42;;;;;;;39.83;21.35;;;1.50;99.90;;;;;;5055434;28;20119;-53
2021/12/29 07:49:07;;;;;;;36.60;22.25;;;1.40;99.90;;;;;;5054993;28;20028;-51
2021/12/29 07:51:34;;;;;;;37.85;21.50;;;1.50;99.90;;;;;;5055318;28;20112;-51
2021/12/29 07:53:59;;;;;;;36.13;21.48;;;1.40;99.90;;;;;;5058037;28;20028;-55
2021/12/29 07:56:26;;;;;;;40.42;23.67;;;1.50;99.90;;;;;;5055531;28;20033;-50
2021/12/29 07:58:52;;;;;;;49.42;24.85;;;1.50;99.90;;;;;;5057785;28;20407;-53
2021/12/29 08:01:17;;;;;;;45.95;24.17;;;1.50;99.90;;;;;;5055225;28;20039;-51
2021/12/29 08:03:44;;;;;;;46.88;24.75;;;1.50;99.90;;;;;;5055083;28;20039;-49
2021/12/29 08:06:09;;;;;;;42.33;24.15;;;1.50;99.90;;;;;;5054500;28;20052;-51
2021/12/29 08:08:35;;;;;;;52.75;25.88;;;1.40;99.90;;;;;;5057480;28;20107;-48
2021/12/29 08:11:01;;;;;;;43.83;24.52;;;1.40;99.90;;;;;;5054031;28;20064;-49
2021/12/29 08:13:26;;;;;;;57.28;26.00;;;1.50;99.90;;;;;;5053365;28;20487;-48
2021/12/29 08:15:52;;;;;;;47.90;23.83;;;1.40;99.90;;;;;;5055672;28;20132;-52
2021/12/29 08:18:18;;;;;;;45.08;25.50;;;1.50;99.90;;;;;;5052847;28;20479;-51
2021/12/29 08:20:44;;;;;;;45.72;24.95;;;1.50;99.90;;;;;;5057430;28;20025;-51
2021/12/29 08:23:11;;;;;;;44.50;24.17;;;1.50;99.90;;;;;;5055484;28;20079;-50
2021/12/29 08:28:14;;;;;;;43.40;23.02;;;1.50;99.90;;;;;;5051891;28;20084;-54
2021/12/29 08:30:40;;;;;;;43.38;21.98;;;1.50;99.90;;;;;;5054905;28;20071;-54
2021/12/29 08:33:06;;;;;;;44.95;24.42;;;1.50;99.90;;;;;;5055261;28;20287;-53
2021/12/29 08:35:32;;;;;;;54.38;27.90;;;1.50;99.90;;;;;;5056196;28;20692;-55
2021/12/29 08:37:58;;;;;;;53.22;26.58;;;1.50;99.90;;;;;;5059231;28;20020;-54
2021/12/29 08:40:25;;;;;;;51.20;27.30;;;1.50;99.90;;;;;;5046514;28;20029;-51
2021/12/29 08:42:51;;;;;;;52.42;28.08;;;1.50;99.90;;;;;;5060836;28;20605;-52
2021/12/29 08:45:21;;;;;;;58.30;28.52;;;1.50;99.90;;;;;;5063437;28;20020;-55
2021/12/29 08:47:46;;;;;;;52.50;25.58;;;1.60;99.90;;;;;;5049189;28;20059;-53
2021/12/29 08:50:16;;;;;;;50.47;26.95;;;1.60;99.90;;;;;;5062762;28;20048;-53
2021/12/29 08:52:42;;;;;;;58.60;28.27;;;1.60;99.90;;;;;;5053356;28;20032;-52
2021/12/29 08:55:10;;;;;;;45.67;24.85;;;1.60;99.90;;;;;;5062549;28;20398;-52
2021/12/29 08:57:36;;;;;;;51.20;25.33;;;1.60;99.90;;;;;;5062600;28;20017;-52
2021/12/29 09:00:08;;;;;;;44.58;25.23;;;1.60;99.90;;;;;;5060760;28;20017;-54
2021/12/29 09:02:33;;;;;;;42.72;25.05;;;1.60;99.90;;;;;;5059030;28;20104;-52
2021/12/29 09:04:59;;;;;;;46.63;23.38;;;1.70;99.90;;;;;;5056900;28;20120;-53
2021/12/29 09:07:25;;;;;;;48.10;24.00;;;1.60;99.90;;;;;;5047612;28;20115;-54
2021/12/29 09:09:50;;;;;;;41.65;23.10;;;1.70;99.90;;;;;;5059248;28;20016;-52
2021/12/29 09:12:17;;;;;;;44.50;23.25;;;1.70;99.90;;;;;;5059569;28;20025;-55
2021/12/29 09:14:44;;;;;;;44.70;23.98;;;1.70;99.90;;;;;;5055860;28;20033;-53
2021/12/29 09:17:11;;;;;;;44.83;23.13;;;1.70;99.90;;;;;;5058463;28;20008;-53
2021/12/29 09:19:40;;;;;;;56.05;25.73;;;1.70;99.90;;;;;;5057816;28;20028;-55
2021/12/29 09:22:06;;;;;;;52.08;26.55;;;1.80;99.90;;;;;;5058596;28;20028;-53
2021/12/29 09:24:32;;;;;;;50.88;26.35;;;1.80;99.90;;;;;;5054235;28;20117;-53
2021/12/29 09:26:58;;;;;;;56.90;26.83;;;1.80;99.90;;;;;;5057672;28;20512;-52
2021/12/29 09:29:23;;;;;;;47.85;26.02;;;1.80;99.90;;;;;;5057374;28;20033;-57
2021/12/29 09:31:49;;;;;;;54.60;26.10;;;1.80;99.90;;;;;;5056939;28;20039;-51
2021/12/29 09:34:15;;;;;;;58.80;27.70;;;1.80;99.90;;;;;;5058475;28;20017;-55
2021/12/29 09:36:41;;;;;;;51.33;27.33;;;1.90;99.90;;;;;;5055893;28;20037;-52
2021/12/29 09:39:06;;;;;;;51.15;26.95;;;1.80;99.90;;;;;;5056872;28;20024;-52
2021/12/29 09:41:32;;;;;;;50.67;27.58;;;1.90;99.90;;;;;;5054952;28;20055;-50
2021/12/29 09:43:58;;;;;;;59.50;30.13;;;1.90;99.90;;;;;;5056782;28;20032;-51
2021/12/29 09:46:24;;;;;;;51.60;27.08;;;1.90;99.90;;;;;;5054320;28;20053;-53
2021/12/29 09:48:51;;;;;;;53.78;28.15;;;1.90;99.90;;;;;;5055806;28;20024;-53
2021/12/29 09:51:17;;;;;;;65.60;30.17;;;2.00;99.90;;;;;;5057438;28;20024;-52
2021/12/29 09:53:44;;;;;;;53.60;27.67;;;2.00;99.90;;;;;;5055092;28;20028;-56
2021/12/29 09:56:11;;;;;;;58.22;27.63;;;2.00;99.90;;;;;;5055994;28;20566;-54
2021/12/29 09:58:38;;;;;;;55.17;26.73;;;2.00;99.90;;;;;;5052819;28;20107;-53
2021/12/29 10:01:06;;;;;;;47.60;26.50;;;2.00;99.90;;;;;;5057332;28;20458;-54
2021/12/29 10:03:32;;;;;;;43.88;25.58;;;2.00;99.90;;;;;;5047456;28;20124;-54
2021/12/29 10:06:01;;;;;;;51.63;26.50;;;2.00;99.90;;;;;;5059643;28;20435;-51
2021/12/29 10:08:37;;;;;;;45.55;24.77;;;2.00;99.90;;;;;;5050634;28;20475;-51
2021/12/29 10:11:06;;;;;;;43.05;23.60;;;2.10;99.90;;;;;;5059337;28;20508;-53
2021/12/29 10:13:38;;;;;;;52.72;25.20;;;2.10;99.90;;;;;;5055871;28;20537;-51
2021/12/29 10:16:20;;;;;;;49.45;25.65;;;2.10;99.90;;;;;;5038592;28;20491;-51
2021/12/29 10:18:53;;;;;;;48.13;27.30;;;2.10;99.90;;;;;;5055002;28;20033;-52
2021/12/29 10:21:22;;;;;;;48.42;27.02;;;2.20;99.90;;;;;;5060059;28;20095;-51
2021/12/29 10:23:50;;;;;;;46.40;26.38;;;2.20;99.90;;;;;;5055536;28;20039;-53
2021/12/29 10:26:28;;;;;;;44.08;26.10;;;2.20;99.90;;;;;;5056809;28;20119;-52
2021/12/29 10:29:01;;;;;;;46.65;26.05;;;2.20;99.90;;;;;;5057673;28;20043;-52
2021/12/29 10:31:48;;;;;;;53.17;26.40;;;2.20;99.90;;;;;;5047620;28;20434;-54
2021/12/29 10:34:18;;;;;;;48.75;25.33;;;2.30;99.90;;;;;;5058898;28;20017;-53
2021/12/29 10:36:58;;;;;;;47.50;25.13;;;2.30;99.90;;;;;;5058636;28;20131;-54
2021/12/29 10:39:28;;;;;;;45.28;25.20;;;2.30;99.90;;;;;;5058686;28;20070;-53
2021/12/29 10:41:55;;;;;;;48.70;26.63;;;2.30;99.90;;;;;;5057975;28;20126;-52
2021/12/29 10:44:51;;;;;;;43.42;24.52;;;2.30;99.90;;;;;;5062689;28;20059;-52
2021/12/29 10:47:21;;;;;;;48.42;24.38;;;2.30;99.90;;;;;;5055273;28;20047;-52
2021/12/29 10:49:50;;;;;;;47.38;24.75;;;2.30;99.90;;;;;;5060891;28;20029;-53
2021/12/29 10:52:15;;;;;;;49.65;26.63;;;2.40;99.90;;;;;;5061566;28;20036;-54
2021/12/29 10:54:41;;;;;;;51.25;26.65;;;2.40;99.90;;;;;;5065713;28;20359;-51
2021/12/29 10:57:12;;;;;;;49.35;27.10;;;2.50;99.90;;;;;;5061444;28;20561;-51
2021/12/29 10:59:41;;;;;;;47.53;25.48;;;2.50;99.90;;;;;;5060587;28;20557;-53
2021/12/29 11:02:08;;;;;;;47.67;27.05;;;2.50;99.90;;;;;;5059564;28;20542;-54
2021/12/29 11:04:35;;;;;;;50.90;26.48;;;2.50;99.90;;;;;;5046243;28;20033;-52
2021/12/29 11:07:01;;;;;;;52.45;27.70;;;2.50;99.90;;;;;;5061507;28;20024;-51
2021/12/29 11:09:35;;;;;;;55.60;28.60;;;2.50;99.90;;;;;;5062829;28;20040;-53
2021/12/29 11:12:09;;;;;;;53.88;27.17;;;2.50;99.90;;;;;;5056863;28;20021;-53
2021/12/29 11:14:37;;;;;;;44.47;25.60;;;2.60;99.90;;;;;;5056952;28;20040;-52
2021/12/29 11:17:11;;;;;;;45.15;25.90;;;2.60;99.90;;;;;;5056588;28;20037;-56
2021/12/29 11:19:39;;;;;;;52.17;27.17;;;2.60;99.90;;;;;;5057888;28;20032;-53
2021/12/29 11:22:11;;;;;;;52.75;26.42;;;2.70;99.90;;;;;;5064208;28;20348;-53
2021/12/29 11:24:38;;;;;;;49.88;26.95;;;2.70;99.90;;;;;;5056364;28;20462;-52
2021/12/29 11:27:13;;;;;;;46.45;26.08;;;2.70;99.90;;;;;;5055853;28;20548;-54
2021/12/29 11:30:10;;;;;;;52.10;26.75;;;2.80;99.90;;;;;;5054078;28;20115;-53
2021/12/29 11:32:45;;;;;;;50.40;26.48;;;2.80;99.90;;;;;;5049764;28;20049;-55
2021/12/29 11:35:20;;;;;;;51.25;26.33;;;2.80;99.90;;;;;;5053940;28;20032;-52
2021/12/29 11:37:48;;;;;;;44.50;24.98;;;2.90;99.90;;;;;;5054939;28;20047;-52
2021/12/29 11:40:21;;;;;;;48.17;25.17;;;2.80;99.90;;;;;;5053619;28;20749;-55
2021/12/29 11:42:49;;;;;;;43.35;25.60;;;2.90;99.90;;;;;;5054303;28;20055;-53
2021/12/29 11:45:15;;;;;;;47.63;25.20;;;2.90;99.90;;;;;;5056946;28;20115;-53
2021/12/29 11:47:42;;;;;;;51.00;27.45;;;2.90;99.90;;;;;;5058368;28;20612;-52
2021/12/29 11:50:12;;;;;;;44.70;25.10;;;3.00;99.90;;;;;;5056366;28;20025;-53
2021/12/29 11:52:58;;;;;;;45.50;24.73;;;3.00;99.90;;;;;;5056309;28;20021;-51
2021/12/29 11:55:32;;;;;;;42.75;24.27;;;3.00;99.90;;;;;;5058186;28;20403;-54
2021/12/29 11:58:18;;;;;;;43.22;23.02;;;3.00;99.90;;;;;;5057224;28;20059;-54
2021/12/29 12:00:59;;;;;;;44.97;25.27;;;3.10;99.90;;;;;;5060391;28;20016;-52
2021/12/29 12:03:25;;;;;;;39.47;23.23;;;3.10;99.90;;;;;;5059652;28;20476;-55
2021/12/29 12:05:50;;;;;;;45.22;25.63;;;3.10;99.90;;;;;;5062167;28;20016;-53
2021/12/29 12:08:24;;;;;;;46.38;24.50;;;3.10;99.90;;;;;;5060680;28;20028;-52
2021/12/29 12:10:50;;;;;;;45.25;25.90;;;3.10;99.90;;;;;;5063442;28;20487;-53
2021/12/29 12:13:20;;;;;;;41.83;24.50;;;3.20;99.90;;;;;;5047725;28;20052;-52
2021/12/29 12:15:46;;;;;;;44.40;24.90;;;3.20;99.90;;;;;;5062774;28;20501;-52
2021/12/29 12:18:11;;;;;;;47.83;26.15;;;3.20;99.90;;;;;;5060786;28;20032;-51
2021/12/29 12:20:44;;;;;;;46.92;26.02;;;3.20;99.90;;;;;;5049207;28;20024;-52
2021/12/29 12:23:23;;;;;;;42.28;24.08;;;3.20;99.90;;;;;;5046268;28;20021;-55
2021/12/29 12:25:49;;;;;;;52.80;25.48;;;3.30;99.90;;;;;;5060142;28;20577;-54
2021/12/29 12:28:16;;;;;;;49.70;25.20;;;3.20;99.90;;;;;;5060662;28;20123;-52
2021/12/29 12:30:46;;;;;;;48.78;26.25;;;3.20;99.90;;;;;;5060807;28;20445;-51
2021/12/29 12:33:17;;;;;;;52.85;27.08;;;3.30;99.90;;;;;;5061674;28;20025;-53
2021/12/29 12:35:45;;;;;;;51.28;26.35;;;3.20;99.90;;;;;;5060546;28;20017;-52
2021/12/29 12:38:22;;;;;;;49.55;23.85;;;3.20;99.90;;;;;;5048030;28;20016;-55
2021/12/29 12:41:10;;;;;;;49.80;24.30;;;3.10;99.90;;;;;;5061445;28;20032;-51
2021/12/29 12:43:58;;;;;;;41.20;22.70;;;3.10;99.90;;;;;;5061824;28;20083;-54
2021/12/29 12:46:34;;;;;;;45.92;25.40;;;3.20;99.90;;;;;;5063778;28;20027;-51
2021/12/29 12:49:11;;;;;;;42.60;22.23;;;3.20;99.90;;;;;;5063286;28;20021;-53
2021/12/29 12:51:36;;;;;;;42.72;23.52;;;3.20;99.90;;;;;;5053525;28;20364;-51